Time,TemperatureF,DewpointF,PressureIn,WindDirection,WindDirectionDegrees,WindSpeedMPH,WindSpeedGustMPH,Humidity,HourlyPrecipIn,Conditions,Clouds,dailyrainin,SoftwareType,DateUTC
2013-03-03 00:01:00,32.0,28.0,-100.00,ESE,120,5.0,6.0,82,-99.99,,,-99.99,,2013-03-03 07:01:00,
2013-03-03 00:11:00,32.0,28.0,-100.00,ESE,120,5.0,6.0,82,-99.99,,,-99.99,,2013-03-03 07:11:00,
2013-03-03 00:21:00,32.0,27.0,-100.00,SE,135,5.0,6.0,82,-99.99,,,-99.99,,2013-03-03 07:21:00,
2013-03-03 00:31:00,32.0,28.0,-100.00,ESE,120,4.0,6.0,83,-99.99,,,-99.99,,2013-03-03 07:31:00,
2013-03-03 00:42:00,32.0,28.0,-100.00,SE,130,4.0,6.0,83,-99.99,,,-99.99,,2013-03-03 07:42:00,
2013-03-03 00:51:00,32.0,28.0,-100.00,SE,130,4.0,6.0,83,-99.99,,,-99.99,,2013-03-03 07:51:00,
2013-03-03 01:01:00,32.0,27.0,-100.00,ESE,115,4.0,4.0,83,-99.99,,,-99.99,,2013-03-03 08:01:00,
2013-03-03 01:11:00,32.0,27.0,-100.00,ESE,115,4.0,4.0,83,-99.99,,,-99.99,,2013-03-03 08:11:00,
2013-03-03 01:21:00,32.0,27.0,-100.00,ESE,120,3.0,4.0,83,-99.99,,,-99.99,,2013-03-03 08:21:00,
2013-03-03 01:31:00,31.0,27.0,-100.00,ESE,115,2.0,3.0,83,-99.99,,,-99.99,,2013-03-03 08:31:00,
2013-03-03 01:41:00,31.0,27.0,-100.00,ESE,115,3.0,4.0,83,-99.99,,,-99.99,,2013-03-03 08:41:00,
2013-03-03 01:53:00,31.0,27.0,-100.00,ESE,115,3.0,4.0,83,-99.99,,,-99.99,,2013-03-03 08:53:00,
2013-03-03 02:01:00,31.0,27.0,-100.00,SE,135,4.0,5.0,83,-99.99,,,-99.99,,2013-03-03 09:01:00,
2013-03-03 02:11:00,31.0,27.0,-100.00,SE,135,4.0,5.0,83,-99.99,,,-99.99,,2013-03-03 09:11:00,
2013-03-03 02:21:00,32.0,27.0,-100.00,SE,130,4.0,6.0,83,-99.99,,,-99.99,,2013-03-03 09:21:00,
2013-03-03 02:32:00,31.0,27.0,-100.00,SE,125,5.0,6.0,84,-99.99,,,-99.99,,2013-03-03 09:32:00,
2013-03-03 02:41:00,33.0,28.0,-100.00,ESE,120,5.0,6.0,84,-99.99,,,-99.99,,2013-03-03 09:41:00,
2013-03-03 02:51:00,33.0,28.0,-100.00,ESE,120,5.0,6.0,84,-99.99,,,-99.99,,2013-03-03 09:51:00,
2013-03-03 03:01:00,32.0,28.0,-100.00,ESE,115,4.0,6.0,84,-99.99,,,-99.99,,2013-03-03 10:01:00,
2013-03-03 03:11:00,32.0,28.0,-100.00,ESE,115,4.0,6.0,84,-99.99,,,-99.99,,2013-03-03 10:11:00,
2013-03-03 03:21:00,32.0,28.0,-100.00,ESE,105,4.0,5.0,84,-99.99,,,-99.99,,2013-03-03 10:21:00,
2013-03-03 03:32:00,32.0,28.0,-100.00,SE,130,6.0,6.0,84,-99.99,,,-99.99,,2013-03-03 10:32:00,
2013-03-03 03:42:00,32.0,28.0,-100.00,ESE,120,4.0,6.0,84,-99.99,,,-99.99,,2013-03-03 10:42:00,
2013-03-03 03:52:00,32.0,28.0,-100.00,ESE,120,4.0,6.0,84,-99.99,,,-99.99,,2013-03-03 10:52:00,
2013-03-03 04:01:00,32.0,28.0,-100.00,SE,135,5.0,6.0,84,-99.99,,,-99.99,,2013-03-03 11:01:00,
2013-03-03 04:11:00,32.0,28.0,-100.00,SE,135,5.0,6.0,84,-99.99,,,-99.99,,2013-03-03 11:11:00,
2013-03-03 04:21:00,32.0,28.0,-100.00,SE,125,6.0,6.0,84,-99.99,,,-99.99,,2013-03-03 11:21:00,
2013-03-03 04:32:00,33.0,29.0,-100.00,SE,140,5.0,7.0,84,-99.99,,,-99.99,,2013-03-03 11:32:00,
2013-03-03 04:42:00,33.0,28.0,-100.00,SE,135,4.0,4.0,84,-99.99,,,-99.99,,2013-03-03 11:42:00,
2013-03-03 04:52:00,33.0,28.0,-100.00,SE,135,4.0,4.0,84,-99.99,,,-99.99,,2013-03-03 11:52:00,
2013-03-03 05:01:00,33.0,28.0,-100.00,SE,135,3.0,6.0,84,-99.99,,,-99.99,,2013-03-03 12:01:00,
2013-03-03 05:11:00,33.0,28.0,-100.00,SE,135,3.0,6.0,84,-99.99,,,-99.99,,2013-03-03 12:11:00,
2013-03-03 05:21:00,33.0,28.0,-100.00,SE,140,3.0,4.0,84,-99.99,,,-99.99,,2013-03-03 12:21:00,
2013-03-03 05:32:00,33.0,28.0,-100.00,SE,135,5.0,6.0,84,-99.99,,,-99.99,,2013-03-03 12:32:00,
2013-03-03 05:43:00,33.0,28.0,-100.00,SE,130,4.0,6.0,83,-99.99,,,-99.99,,2013-03-03 12:43:00,
2013-03-03 05:52:00,33.0,28.0,-100.00,SE,130,4.0,6.0,83,-99.99,,,-99.99,,2013-03-03 12:52:00,
2013-03-03 06:01:00,33.0,28.0,-100.00,SE,125,4.0,6.0,83,-99.99,,,-99.99,,2013-03-03 13:01:00,
2013-03-03 06:11:00,33.0,28.0,-100.00,SE,125,4.0,6.0,83,-99.99,,,-99.99,,2013-03-03 13:11:00,
2013-03-03 06:22:00,33.0,28.0,-100.00,SE,130,3.0,5.0,83,-99.99,,,-99.99,,2013-03-03 13:22:00,
2013-03-03 06:32:00,32.0,28.0,-100.00,SE,125,1.0,4.0,83,-99.99,,,-99.99,,2013-03-03 13:32:00,
2013-03-03 06:42:00,32.0,28.0,-100.00,East,95,2.0,3.0,83,-99.99,,,-99.99,,2013-03-03 13:42:00,
2013-03-03 06:52:00,32.0,28.0,-100.00,East,95,2.0,3.0,83,-99.99,,,-99.99,,2013-03-03 13:52:00,
2013-03-03 07:02:00,33.0,28.0,-100.00,ESE,115,4.0,4.0,83,-99.99,,,-99.99,,2013-03-03 14:02:00,
2013-03-03 07:11:00,33.0,28.0,-100.00,ESE,115,4.0,4.0,83,-99.99,,,-99.99,,2013-03-03 14:11:00,
2013-03-03 07:21:00,33.0,28.0,-100.00,ESE,105,2.0,4.0,83,-99.99,,,-99.99,,2013-03-03 14:21:00,
2013-03-03 07:32:00,33.0,28.0,-100.00,SE,130,4.0,4.0,83,-99.99,,,-99.99,,2013-03-03 14:32:00,
2013-03-03 07:42:00,33.0,28.0,-100.00,SE,140,1.0,4.0,83,-99.99,,,-99.99,,2013-03-03 14:42:00,
2013-03-03 07:52:00,33.0,28.0,-100.00,SE,140,1.0,4.0,83,-99.99,,,-99.99,,2013-03-03 14:52:00,
2013-03-03 08:01:00,33.0,29.0,-100.00,NE,35,4.0,5.0,83,-99.99,,,-99.99,,2013-03-03 15:01:00,
2013-03-03 08:11:00,33.0,29.0,-100.00,NE,35,4.0,5.0,83,-99.99,,,-99.99,,2013-03-03 15:11:00,
2013-03-03 08:22:00,34.0,29.0,-100.00,NE,35,1.0,4.0,83,-99.99,,,-99.99,,2013-03-03 15:22:00,
2013-03-03 08:32:00,35.0,30.0,-100.00,SE,125,0.0,1.0,82,-99.99,,,-99.99,,2013-03-03 15:32:00,
2013-03-03 08:42:00,35.0,30.0,-100.00,SE,140,1.0,2.0,81,-99.99,,,-99.99,,2013-03-03 15:42:00,
2013-03-03 08:52:00,35.0,30.0,-100.00,SE,140,1.0,2.0,81,-99.99,,,-99.99,,2013-03-03 15:52:00,
2013-03-03 09:01:00,36.0,30.0,-100.00,SE,135,0.0,2.0,78,-99.99,,,-99.99,,2013-03-03 16:01:00,
2013-03-03 09:12:00,36.0,30.0,-100.00,SE,135,0.0,2.0,78,-99.99,,,-99.99,,2013-03-03 16:12:00,
2013-03-03 09:22:00,38.0,32.0,-100.00,ENE,60,0.0,1.0,78,-99.99,,,-99.99,,2013-03-03 16:22:00,
2013-03-03 09:32:00,41.0,32.0,-100.00,SW,225,5.0,7.0,71,-99.99,,,-99.99,,2013-03-03 16:32:00,
2013-03-03 09:42:00,43.0,31.0,-100.00,WSW,245,6.0,9.0,61,-99.99,,,-99.99,,2013-03-03 16:42:00,
2013-03-03 09:52:00,43.0,31.0,-100.00,WSW,245,6.0,9.0,61,-99.99,,,-99.99,,2013-03-03 16:52:00,
2013-03-03 10:01:00,45.0,28.0,-100.00,West,260,6.0,7.0,50,-99.99,,,-99.99,,2013-03-03 17:01:00,
2013-03-03 10:11:00,45.0,28.0,-100.00,West,260,6.0,7.0,50,-99.99,,,-99.99,,2013-03-03 17:11:00,
2013-03-03 10:22:00,46.0,27.0,-100.00,West,270,6.0,7.0,48,-99.99,,,-99.99,,2013-03-03 17:22:00,
2013-03-03 10:32:00,47.0,27.0,-100.00,West,270,7.0,8.0,45,-99.99,,,-99.99,,2013-03-03 17:32:00,
2013-03-03 10:42:00,48.0,27.0,-100.00,West,265,7.0,9.0,44,-99.99,,,-99.99,,2013-03-03 17:42:00,
2013-03-03 10:52:00,48.0,27.0,-100.00,West,265,7.0,9.0,44,-99.99,,,-99.99,,2013-03-03 17:52:00,
2013-03-03 11:02:00,50.0,27.0,-100.00,WSW,255,7.0,10.0,41,-99.99,,,-99.99,,2013-03-03 18:02:00,
2013-03-03 11:11:00,50.0,27.0,-100.00,WSW,255,7.0,10.0,41,-99.99,,,-99.99,,2013-03-03 18:11:00,
2013-03-03 11:21:00,50.0,27.0,-100.00,WSW,245,11.0,12.0,41,-99.99,,,-99.99,,2013-03-03 18:21:00,
2013-03-03 11:32:00,49.0,27.0,-100.00,WSW,240,9.0,12.0,42,-99.99,,,-99.99,,2013-03-03 18:32:00,
2013-03-03 11:42:00,50.0,28.0,-100.00,West,260,9.0,12.0,41,-99.99,,,-99.99,,2013-03-03 18:42:00,
2013-03-03 11:52:00,50.0,28.0,-100.00,West,260,9.0,12.0,41,-99.99,,,-99.99,,2013-03-03 18:52:00,
2013-03-03 12:02:00,51.0,28.0,-100.00,West,270,10.0,12.0,41,-99.99,,,-99.99,,2013-03-03 19:02:00,
2013-03-03 12:11:00,51.0,28.0,-100.00,West,270,10.0,12.0,41,-99.99,,,-99.99,,2013-03-03 19:11:00,
2013-03-03 12:22:00,50.0,29.0,-100.00,West,270,13.0,16.0,42,-99.99,,,-99.99,,2013-03-03 19:22:00,
2013-03-03 12:32:00,50.0,31.0,-100.00,West,280,9.0,12.0,47,-99.99,,,-99.99,,2013-03-03 19:32:00,
2013-03-03 12:42:00,49.0,31.0,-100.00,WNW,285,8.0,12.0,50,-99.99,,,-99.99,,2013-03-03 19:42:00,
2013-03-03 12:52:00,49.0,31.0,-100.00,WNW,285,8.0,12.0,50,-99.99,,,-99.99,,2013-03-03 19:52:00,
2013-03-03 13:01:00,48.0,34.0,-100.00,NW,305,4.0,6.0,57,-99.99,,,-99.99,,2013-03-03 20:01:00,
2013-03-03 13:11:00,48.0,34.0,-100.00,NW,305,4.0,6.0,57,-99.99,,,-99.99,,2013-03-03 20:11:00,
2013-03-03 13:21:00,48.0,35.0,-100.00,WNW,290,4.0,6.0,60,-99.99,,,-99.99,,2013-03-03 20:21:00,
2013-03-03 13:32:00,47.0,37.0,-100.00,WNW,295,6.0,7.0,67,-99.99,,,-99.99,,2013-03-03 20:32:00,
2013-03-03 13:42:00,46.0,38.0,-100.00,WNW,290,5.0,7.0,71,-99.99,,,-99.99,,2013-03-03 20:42:00,
2013-03-03 13:52:00,46.0,38.0,-100.00,WNW,290,5.0,7.0,71,-99.99,,,-99.99,,2013-03-03 20:52:00,
2013-03-03 14:02:00,46.0,38.0,-100.00,SSW,200,1.0,4.0,73,-99.99,,,-99.99,,2013-03-03 21:02:00,
2013-03-03 14:11:00,46.0,38.0,-100.00,SSW,200,1.0,4.0,73,-99.99,,,-99.99,,2013-03-03 21:11:00,
2013-03-03 14:22:00,46.0,38.0,-100.00,SSE,155,4.0,5.0,74,-99.99,,,-99.99,,2013-03-03 21:22:00,
2013-03-03 14:32:00,45.0,38.0,-100.00,SSE,155,4.0,6.0,76,-99.99,,,-99.99,,2013-03-03 21:32:00,
2013-03-03 14:42:00,45.0,38.0,-100.00,South,175,5.0,7.0,76,-99.99,,,-99.99,,2013-03-03 21:42:00,
2013-03-03 14:52:00,45.0,38.0,-100.00,South,175,5.0,7.0,76,-99.99,,,-99.99,,2013-03-03 21:52:00,
2013-03-03 15:01:00,45.0,39.0,-100.00,South,190,4.0,7.0,78,-99.99,,,-99.99,,2013-03-03 22:01:00,
2013-03-03 15:11:00,45.0,39.0,-100.00,South,190,4.0,7.0,78,-99.99,,,-99.99,,2013-03-03 22:11:00,
2013-03-03 15:22:00,45.0,39.0,-100.00,South,185,6.0,9.0,77,-99.99,,,-99.99,,2013-03-03 22:22:00,
2013-03-03 15:32:00,45.0,39.0,-100.00,South,190,7.0,10.0,78,-99.99,,,-99.99,,2013-03-03 22:32:00,
2013-03-03 15:42:00,45.0,39.0,-100.00,South,185,9.0,14.0,78,-99.99,,,-99.99,,2013-03-03 22:42:00,
2013-03-03 15:52:00,45.0,39.0,-100.00,South,185,9.0,14.0,78,-99.99,,,-99.99,,2013-03-03 22:52:00,
2013-03-03 16:01:00,45.0,38.0,-100.00,SSW,195,8.0,11.0,76,-99.99,,,-99.99,,2013-03-03 23:01:00,
2013-03-03 16:11:00,45.0,38.0,-100.00,SSW,195,8.0,11.0,76,-99.99,,,-99.99,,2013-03-03 23:11:00,
2013-03-03 16:21:00,45.0,38.0,-100.00,SSW,195,8.0,9.0,76,-99.99,,,-99.99,,2013-03-03 23:21:00,
2013-03-03 16:32:00,45.0,38.0,-100.00,SSW,195,9.0,12.0,76,-99.99,,,-99.99,,2013-03-03 23:32:00,
2013-03-03 16:42:00,44.0,38.0,-100.00,SSW,195,9.0,11.0,77,-99.99,,,-99.99,,2013-03-03 23:42:00,
2013-03-03 16:52:00,44.0,38.0,-100.00,SSW,195,9.0,11.0,77,-99.99,,,-99.99,,2013-03-03 23:52:00,
2013-03-03 17:01:00,44.0,38.0,-100.00,South,190,7.0,11.0,77,-99.99,,,-99.99,,2013-03-04 00:01:00,
2013-03-03 17:11:00,44.0,38.0,-100.00,South,190,7.0,11.0,77,-99.99,,,-99.99,,2013-03-04 00:11:00,
2013-03-03 17:21:00,44.0,38.0,-100.00,South,190,7.0,11.0,77,-99.99,,,-99.99,,2013-03-04 00:21:00,
2013-03-03 17:32:00,44.0,37.0,-100.00,SSW,195,7.0,8.0,76,-99.99,,,-99.99,,2013-03-04 00:32:00,
2013-03-03 17:42:00,44.0,37.0,-100.00,South,190,7.0,9.0,77,-99.99,,,-99.99,,2013-03-04 00:42:00,
2013-03-03 17:52:00,44.0,37.0,-100.00,South,190,7.0,9.0,77,-99.99,,,-99.99,,2013-03-04 00:52:00,
2013-03-03 18:01:00,42.0,36.0,-100.00,South,185,7.0,9.0,78,-99.99,,,-99.99,,2013-03-04 01:01:00,
2013-03-03 18:11:00,42.0,36.0,-100.00,South,185,7.0,9.0,78,-99.99,,,-99.99,,2013-03-04 01:11:00,
2013-03-03 18:21:00,41.0,35.0,-100.00,South,185,6.0,8.0,78,-99.99,,,-99.99,,2013-03-04 01:21:00,
2013-03-03 18:32:00,41.0,35.0,-100.00,South,170,7.0,8.0,79,-99.99,,,-99.99,,2013-03-04 01:32:00,
2013-03-03 18:42:00,41.0,35.0,-100.00,South,170,6.0,9.0,79,-99.99,,,-99.99,,2013-03-04 01:42:00,
2013-03-03 18:51:00,41.0,35.0,-100.00,South,170,6.0,9.0,79,-99.99,,,-99.99,,2013-03-04 01:51:00,
2013-03-03 19:01:00,41.0,35.0,-100.00,SSE,165,9.0,11.0,79,-99.99,,,-99.99,,2013-03-04 02:01:00,
2013-03-03 19:11:00,41.0,35.0,-100.00,SSE,165,9.0,11.0,79,-99.99,,,-99.99,,2013-03-04 02:11:00,
2013-03-03 19:22:00,41.0,36.0,-100.00,SSE,160,9.0,13.0,81,-99.99,,,-99.99,,2013-03-04 02:22:00,
2013-03-03 19:32:00,41.0,36.0,-100.00,South,175,10.0,13.0,83,-99.99,,,-99.99,,2013-03-04 02:32:00,
2013-03-03 19:42:00,41.0,36.0,-100.00,South,175,11.0,14.0,83,-99.99,,,-99.99,,2013-03-04 02:42:00,
2013-03-03 19:52:00,41.0,36.0,-100.00,South,175,11.0,14.0,83,-99.99,,,-99.99,,2013-03-04 02:52:00,
2013-03-03 20:02:00,42.0,37.0,-100.00,WSW,245,9.0,19.0,83,-99.99,,,-99.99,,2013-03-04 03:02:00,
2013-03-03 20:11:00,42.0,37.0,-100.00,WSW,245,9.0,19.0,83,-99.99,,,-99.99,,2013-03-04 03:11:00,
2013-03-03 20:21:00,41.0,36.0,-100.00,WNW,285,16.0,19.0,83,-99.99,,,-99.99,,2013-03-04 03:21:00,
2013-03-03 20:32:00,36.0,32.0,-100.00,WNW,290,24.0,27.0,85,-99.99,,,-99.99,,2013-03-04 03:32:00,
2013-03-03 20:42:00,36.0,32.0,-100.00,WNW,290,22.0,26.0,85,-99.99,,,-99.99,,2013-03-04 03:42:00,
2013-03-03 20:52:00,36.0,32.0,-100.00,WNW,290,22.0,26.0,85,-99.99,,,-99.99,,2013-03-04 03:52:00,
2013-03-03 21:01:00,33.0,29.0,-100.00,WNW,285,23.0,30.0,86,-99.99,,,-99.99,,2013-03-04 04:01:00,
2013-03-03 21:11:00,33.0,29.0,-100.00,WNW,285,23.0,30.0,86,-99.99,,,-99.99,,2013-03-04 04:11:00,
2013-03-03 21:22:00,33.0,29.0,-100.00,WNW,285,27.0,31.0,86,-99.99,,,-99.99,,2013-03-04 04:22:00,
2013-03-03 21:32:00,32.0,29.0,-100.00,WNW,290,25.0,34.0,86,-99.99,,,-99.99,,2013-03-04 04:32:00,
2013-03-03 21:42:00,32.0,29.0,-100.00,West,280,25.0,31.0,86,-99.99,,,-99.99,,2013-03-04 04:42:00,
2013-03-03 21:52:00,32.0,29.0,-100.00,West,280,25.0,31.0,86,-99.99,,,-99.99,,2013-03-04 04:52:00,
2013-03-03 22:01:00,32.0,29.0,-100.00,West,280,24.0,29.0,86,-99.99,,,-99.99,,2013-03-04 05:01:00,
2013-03-03 22:11:00,32.0,29.0,-100.00,West,280,24.0,29.0,86,-99.99,,,-99.99,,2013-03-04 05:11:00,
2013-03-03 22:22:00,32.0,29.0,-100.00,West,280,23.0,29.0,86,-99.99,,,-99.99,,2013-03-04 05:22:00,
2013-03-03 22:32:00,32.0,29.0,-100.00,WNW,285,24.0,32.0,86,-99.99,,,-99.99,,2013-03-04 05:32:00,
2013-03-03 22:42:00,32.0,29.0,-100.00,West,280,23.0,29.0,86,-99.99,,,-99.99,,2013-03-04 05:42:00,
2013-03-03 22:52:00,32.0,29.0,-100.00,West,280,23.0,29.0,86,-99.99,,,-99.99,,2013-03-04 05:52:00,
2013-03-03 23:01:00,32.0,28.0,-100.00,WNW,290,24.0,29.0,86,-99.99,,,-99.99,,2013-03-04 06:01:00,
2013-03-03 23:11:00,32.0,28.0,-100.00,WNW,290,24.0,29.0,86,-99.99,,,-99.99,,2013-03-04 06:11:00,
2013-03-03 23:21:00,32.0,29.0,-100.00,WNW,285,22.0,28.0,86,-99.99,,,-99.99,,2013-03-04 06:21:00,
2013-03-03 23:32:00,32.0,28.0,-100.00,WNW,285,22.0,30.0,86,-99.99,,,-99.99,,2013-03-04 06:32:00,
2013-03-03 23:42:00,32.0,28.0,-100.00,West,275,23.0,28.0,85,-99.99,,,-99.99,,2013-03-04 06:42:00,
2013-03-03 23:51:00,32.0,28.0,-100.00,West,275,23.0,28.0,85,-99.99,,,-99.99,,2013-03-04 06:51:00,